createdAt,value
2019-01-12T00:00:48.921Z,6.40
2019-01-12T00:03:18.364Z,6.40
2019-01-12T00:05:47.785Z,6.40
2019-01-12T00:08:17.155Z,6.40
2019-01-12T00:10:46.601Z,6.40
2019-01-12T00:13:16.067Z,6.40
2019-01-12T00:15:45.787Z,6.40
2019-01-12T00:18:15.237Z,6.40
2019-01-12T00:20:45.075Z,6.40
2019-01-12T00:23:14.523Z,6.40
2019-01-12T00:25:43.951Z,6.40
2019-01-12T00:28:13.741Z,6.40
2019-01-12T00:30:43.090Z,6.40
2019-01-12T00:33:12.573Z,6.30
2019-01-12T00:35:41.992Z,6.40
2019-01-12T00:38:11.430Z,6.30
2019-01-12T00:40:40.839Z,6.30
2019-01-12T00:43:10.318Z,6.30
2019-01-12T00:45:39.753Z,6.30
2019-01-12T00:48:09.171Z,6.30
2019-01-12T00:50:38.671Z,6.30
2019-01-12T00:53:08.103Z,6.30
2019-01-12T00:55:37.578Z,6.30
2019-01-12T00:58:07.237Z,6.30
2019-01-12T01:00:36.666Z,6.30
2019-01-12T01:03:06.074Z,6.30
2019-01-12T01:05:35.506Z,6.30
2019-01-12T01:08:24.361Z,6.30
2019-01-12T01:10:54.266Z,6.30
2019-01-12T01:13:23.749Z,6.30
2019-01-12T01:15:53.439Z,6.30
2019-01-12T01:18:22.931Z,6.30
2019-01-12T01:20:52.332Z,6.30
2019-01-12T01:23:21.817Z,6.30
2019-01-12T01:25:51.239Z,6.30
2019-01-12T01:28:20.692Z,6.30
2019-01-12T01:30:50.031Z,6.40
2019-01-12T01:33:19.450Z,6.40
2019-01-12T01:35:48.800Z,6.40
2019-01-12T01:38:18.185Z,6.40
2019-01-12T01:40:47.596Z,6.40
2019-01-12T01:43:17.000Z,6.40
2019-01-12T01:45:46.381Z,6.40
2019-01-12T01:48:16.114Z,6.40
2019-01-12T01:50:45.568Z,6.40
2019-01-12T01:53:14.966Z,6.40
2019-01-12T01:55:44.638Z,6.30
2019-01-12T01:58:14.089Z,6.40
2019-01-12T02:00:43.593Z,6.30
2019-01-12T02:03:13.039Z,6.30
2019-01-12T02:05:42.371Z,6.30
2019-01-12T02:08:11.804Z,6.30
2019-01-12T02:10:41.484Z,6.30
2019-01-12T02:13:11.076Z,6.30
2019-01-12T02:15:40.709Z,6.20
2019-01-12T02:18:10.484Z,6.20
2019-01-12T02:20:39.900Z,6.20
2019-01-12T02:23:09.632Z,6.20
2019-01-12T02:25:39.016Z,6.20
2019-01-12T02:28:08.431Z,6.20
2019-01-12T02:30:37.836Z,6.20
2019-01-12T02:33:07.177Z,6.20
2019-01-12T02:35:36.764Z,6.10
2019-01-12T02:38:06.144Z,6.20
2019-01-12T02:40:36.024Z,6.20
2019-01-12T02:43:05.622Z,6.10
2019-01-12T02:45:35.429Z,6.10
2019-01-12T02:48:05.084Z,6.10
2019-01-12T02:50:34.572Z,6.10
2019-01-12T02:53:04.021Z,6.10
2019-01-12T02:55:33.470Z,6.10
2019-01-12T02:58:02.892Z,6.10
2019-01-12T03:00:32.516Z,6.10
2019-01-12T03:03:01.883Z,6.10
2019-01-12T03:05:31.320Z,6.10
2019-01-12T03:08:00.687Z,6.10
2019-01-12T03:10:30.214Z,6.10
2019-01-12T03:13:00.592Z,6.10
2019-01-12T03:15:30.012Z,6.10
2019-01-12T03:17:59.432Z,6.10
2019-01-12T03:20:29.699Z,6.10
2019-01-12T03:22:59.136Z,6.10
2019-01-12T03:25:28.593Z,6.10
2019-01-12T03:27:58.036Z,6.10
2019-01-12T03:30:27.561Z,6.10
2019-01-12T03:32:57.006Z,6.10
2019-01-12T03:35:26.441Z,6.10
2019-01-12T03:37:55.797Z,6.10
2019-01-12T03:40:26.116Z,6.10
2019-01-12T03:42:55.509Z,6.10
2019-01-12T03:45:24.938Z,6.10
2019-01-12T03:47:54.460Z,6.10
2019-01-12T03:50:23.941Z,6.10
2019-01-12T03:52:53.720Z,6.10
2019-01-12T03:55:25.887Z,6.10
2019-01-12T03:57:54.992Z,6.00
2019-01-12T04:00:25.608Z,6.10
2019-01-12T04:02:55.118Z,6.10
2019-01-12T04:05:24.545Z,6.10
2019-01-12T04:07:53.920Z,6.10
2019-01-12T04:10:23.347Z,6.10
2019-01-12T04:12:52.845Z,6.00
2019-01-12T04:15:22.296Z,6.10
2019-01-12T04:17:51.694Z,6.00
2019-01-12T04:20:21.175Z,6.00
2019-01-12T04:22:50.641Z,6.10
2019-01-12T04:25:20.065Z,6.00
2019-01-12T04:27:49.541Z,6.00
2019-01-12T04:30:19.954Z,6.00
2019-01-12T04:32:49.778Z,6.10
2019-01-12T04:35:19.325Z,6.00
2019-01-12T04:37:48.837Z,6.10
2019-01-12T04:40:21.674Z,6.10
2019-01-12T04:42:51.279Z,6.00
2019-01-12T04:45:20.797Z,6.00
2019-01-12T04:47:50.136Z,6.10
2019-01-12T04:50:19.870Z,6.10
2019-01-12T04:52:49.312Z,6.10
2019-01-12T04:55:18.708Z,6.10
2019-01-12T04:57:48.465Z,6.10
2019-01-12T05:00:19.346Z,6.10
2019-01-12T05:02:49.144Z,6.10
2019-01-12T05:05:18.565Z,6.10
2019-01-12T05:07:48.039Z,6.10
2019-01-12T05:10:17.986Z,6.10
2019-01-12T05:12:47.439Z,6.10
2019-01-12T05:15:17.091Z,6.10
2019-01-12T05:17:46.811Z,6.10
2019-01-12T05:20:20.506Z,6.10
2019-01-12T05:22:49.928Z,6.10
2019-01-12T05:25:19.705Z,6.10
2019-01-12T05:27:49.224Z,6.10
2019-01-12T05:30:23.145Z,6.00
2019-01-12T05:32:53.259Z,6.00
2019-01-12T05:35:22.655Z,6.00
2019-01-12T05:37:52.161Z,6.00
2019-01-12T05:40:21.895Z,6.00
2019-01-12T05:42:51.399Z,6.00
2019-01-12T05:45:21.153Z,6.00
2019-01-12T05:47:50.553Z,6.00
2019-01-12T05:50:20.113Z,6.00
2019-01-12T05:52:49.547Z,6.00
2019-01-12T05:55:18.966Z,5.90
2019-01-12T05:57:48.434Z,5.90
2019-01-12T06:00:20.952Z,5.90
2019-01-12T06:02:50.388Z,5.90
2019-01-12T06:05:19.805Z,5.90
2019-01-12T06:07:49.441Z,5.90
2019-01-12T06:10:18.867Z,5.90
2019-01-12T06:12:48.221Z,5.90
2019-01-12T06:15:17.857Z,5.80
2019-01-12T06:17:47.309Z,5.80
2019-01-12T06:20:17.319Z,5.80
2019-01-12T06:22:46.739Z,5.80
2019-01-12T06:25:16.305Z,5.80
2019-01-12T06:27:45.714Z,5.80
2019-01-12T06:30:17.760Z,5.80
2019-01-12T06:32:47.354Z,5.80
2019-01-12T06:35:17.175Z,5.80
2019-01-12T06:37:46.687Z,5.80
2019-01-12T06:40:18.115Z,5.70
2019-01-12T06:42:47.960Z,5.70
2019-01-12T06:45:18.170Z,5.70
2019-01-12T06:47:47.602Z,5.70
2019-01-12T06:50:18.847Z,5.70
2019-01-12T06:52:48.597Z,5.60
2019-01-12T06:55:18.049Z,5.60
2019-01-12T06:57:47.478Z,5.60
2019-01-12T07:00:19.347Z,5.60
2019-01-12T07:02:48.799Z,5.60
2019-01-12T07:05:19.593Z,5.50
2019-01-12T07:07:49.093Z,5.50
2019-01-12T07:10:19.489Z,5.50
2019-01-12T07:12:48.964Z,5.50
2019-01-12T07:15:18.533Z,5.50
2019-01-12T07:17:47.977Z,5.50
2019-01-12T07:20:18.022Z,5.50
2019-01-12T07:22:47.387Z,5.50
2019-01-12T07:25:16.809Z,5.50
2019-01-12T07:27:46.271Z,5.50
2019-01-12T07:30:23.879Z,5.50
2019-01-12T07:32:53.521Z,5.50
2019-01-12T07:35:23.123Z,5.50
2019-01-12T07:37:52.528Z,5.50
2019-01-12T07:40:21.953Z,5.50
2019-01-12T07:42:51.389Z,5.50
2019-01-12T07:45:20.853Z,5.50
2019-01-12T07:47:50.318Z,5.40
2019-01-12T07:50:19.725Z,5.40
2019-01-12T07:52:49.213Z,5.40
2019-01-12T07:55:18.707Z,5.50
2019-01-12T07:57:48.227Z,5.50
2019-01-12T08:00:21.797Z,5.40
2019-01-12T08:02:51.555Z,5.50
2019-01-12T08:05:22.128Z,5.50
2019-01-12T08:07:51.541Z,5.50
2019-01-12T08:10:23.408Z,5.50
2019-01-12T08:12:53.143Z,5.50
2019-01-12T08:15:22.906Z,5.50
2019-01-12T08:17:52.711Z,5.50
2019-01-12T08:20:22.149Z,5.50
2019-01-12T08:22:51.545Z,5.50
2019-01-12T08:25:21.012Z,5.50
2019-01-12T08:27:50.419Z,5.50
2019-01-12T08:30:20.534Z,5.50
2019-01-12T08:32:49.946Z,5.50
2019-01-12T08:35:19.389Z,5.50
2019-01-12T08:37:48.812Z,5.50
2019-01-12T08:40:18.249Z,5.50
2019-01-12T08:42:47.698Z,5.50
2019-01-12T08:45:17.143Z,5.50
2019-01-12T08:47:46.586Z,5.50
2019-01-12T08:50:18.999Z,5.50
2019-01-12T08:52:48.840Z,5.50
2019-01-12T08:55:18.677Z,5.50
2019-01-12T08:57:49.621Z,5.50
2019-01-12T09:00:23.265Z,5.50
2019-01-12T09:02:52.733Z,5.50
2019-01-12T09:05:22.155Z,5.50
2019-01-12T09:07:51.969Z,5.50
2019-01-12T09:10:22.548Z,5.50
2019-01-12T09:12:53.129Z,5.50
2019-01-12T09:15:23.749Z,5.60
2019-01-12T09:17:53.211Z,5.60
2019-01-12T09:20:22.633Z,5.60
2019-01-12T09:22:52.173Z,5.60
2019-01-12T09:25:22.113Z,5.70
2019-01-12T09:27:51.567Z,5.70
2019-01-12T09:30:22.697Z,5.70
2019-01-12T09:32:52.711Z,5.70
2019-01-12T09:35:22.152Z,5.70
2019-01-12T09:37:52.527Z,5.70
2019-01-12T09:40:22.900Z,5.80
2019-01-12T09:42:52.819Z,5.80
2019-01-12T09:45:22.711Z,5.80
2019-01-12T09:47:52.592Z,5.80
2019-01-12T09:50:22.998Z,5.90
2019-01-12T09:52:52.544Z,5.90
2019-01-12T09:55:22.011Z,5.90
2019-01-12T09:57:51.762Z,5.80
2019-01-12T10:00:26.419Z,5.90
2019-01-12T10:02:56.366Z,5.90
2019-01-12T10:05:25.807Z,5.90
2019-01-12T10:07:55.313Z,5.90
2019-01-12T10:10:24.969Z,5.90
2019-01-12T10:12:54.541Z,5.90
2019-01-12T10:15:23.943Z,5.90
2019-01-12T10:17:53.458Z,5.90
2019-01-12T10:20:23.098Z,5.80
2019-01-12T10:22:52.587Z,5.80
2019-01-12T10:25:22.003Z,5.80
2019-01-12T10:27:51.486Z,5.80
2019-01-12T10:30:25.717Z,5.80
2019-01-12T10:32:55.706Z,5.80
2019-01-12T10:35:25.160Z,5.80
2019-01-12T10:37:54.729Z,5.80
2019-01-12T10:40:24.331Z,5.80
2019-01-12T10:42:54.029Z,5.80
2019-01-12T10:45:24.854Z,5.80
2019-01-12T10:47:55.021Z,5.80
2019-01-12T10:50:34.840Z,5.80
2019-01-12T10:53:04.606Z,5.80
2019-01-12T10:55:34.341Z,5.80
2019-01-12T10:58:07.021Z,5.80
2019-01-12T11:00:38.036Z,5.80
2019-01-12T11:03:08.552Z,5.80
2019-01-12T11:05:38.424Z,5.90
2019-01-12T11:08:08.571Z,5.80
2019-01-12T11:10:38.456Z,5.90
2019-01-12T11:13:07.882Z,5.90
2019-01-12T11:15:37.319Z,5.90
2019-01-12T11:18:07.731Z,5.90
2019-01-12T11:20:37.229Z,6.00
2019-01-12T11:23:06.993Z,6.00
2019-01-12T11:25:42.567Z,6.00
2019-01-12T11:28:07.957Z,6.00
2019-01-12T11:30:37.689Z,6.00
2019-01-12T11:33:07.150Z,6.00
2019-01-12T11:35:37.916Z,6.10
2019-01-12T11:38:07.537Z,6.00
2019-01-12T11:40:37.201Z,6.10
2019-01-12T11:43:06.851Z,6.10
2019-01-12T11:45:36.403Z,6.10
2019-01-12T11:48:05.999Z,6.10
2019-01-12T11:50:35.635Z,6.10
2019-01-12T11:53:05.041Z,6.10
2019-01-12T11:55:34.423Z,6.20
2019-01-12T11:58:04.251Z,6.20
2019-01-12T12:00:33.801Z,6.20
2019-01-12T12:03:03.231Z,6.20
2019-01-12T12:05:33.815Z,6.30
2019-01-12T12:08:03.249Z,6.20
2019-01-12T12:10:32.710Z,6.30
2019-01-12T12:13:02.122Z,6.30
2019-01-12T12:15:31.647Z,6.30
2019-01-12T12:18:01.055Z,6.40
2019-01-12T12:20:30.535Z,6.40
2019-01-12T12:23:00.035Z,6.40
2019-01-12T12:25:29.472Z,6.50
2019-01-12T12:27:58.912Z,6.50
2019-01-12T12:30:30.439Z,6.60
2019-01-12T12:33:00.248Z,6.70
2019-01-12T12:35:30.017Z,6.70
2019-01-12T12:37:59.437Z,6.70
2019-01-12T12:40:28.877Z,6.80
2019-01-12T12:42:58.361Z,6.90
2019-01-12T12:45:32.953Z,6.90
2019-01-12T12:48:02.388Z,6.90
2019-01-12T12:50:31.800Z,6.90
2019-01-12T12:53:01.374Z,7.00
2019-01-12T12:55:30.898Z,7.00
2019-01-12T12:58:00.366Z,7.10
2019-01-12T13:00:31.783Z,7.10
2019-01-12T13:03:01.470Z,7.10
2019-01-12T13:05:31.335Z,7.20
2019-01-12T13:08:01.256Z,7.20
2019-01-12T13:10:32.159Z,7.30
2019-01-12T13:13:01.716Z,7.20
2019-01-12T13:15:31.196Z,7.30
2019-01-12T13:18:00.856Z,7.30
2019-01-12T13:20:30.837Z,7.30
2019-01-12T13:23:00.394Z,7.30
2019-01-12T13:25:29.802Z,7.30
2019-01-12T13:28:00.234Z,7.20
2019-01-12T13:30:30.707Z,7.20
2019-01-12T13:33:00.242Z,7.20
2019-01-12T13:35:29.686Z,7.20
2019-01-12T13:37:59.716Z,7.20
2019-01-12T13:40:29.706Z,7.20
2019-01-12T13:42:59.195Z,7.20
2019-01-12T13:45:28.740Z,7.20
2019-01-12T13:47:58.196Z,7.20
2019-01-12T13:50:28.598Z,7.20
2019-01-12T13:52:58.399Z,7.20
2019-01-12T13:55:28.001Z,7.20
2019-01-12T13:57:57.561Z,7.20
2019-01-12T14:00:35.446Z,7.20
2019-01-12T14:03:06.545Z,7.20
2019-01-12T14:05:36.008Z,7.20
2019-01-12T14:08:06.336Z,7.20
2019-01-12T14:10:35.976Z,7.20
2019-01-12T14:13:06.927Z,7.20
2019-01-12T14:15:36.770Z,7.30
2019-01-12T14:18:06.702Z,7.20
2019-01-12T14:20:40.266Z,7.20
2019-01-12T14:23:10.612Z,7.30
2019-01-12T14:25:40.046Z,7.20
2019-01-12T14:28:09.676Z,7.30
2019-01-12T14:30:39.298Z,7.20
2019-01-12T14:33:08.654Z,7.30
2019-01-12T14:35:38.085Z,7.20
2019-01-12T14:38:07.660Z,7.20
2019-01-12T14:40:37.150Z,7.20
2019-01-12T14:43:06.568Z,7.20
2019-01-12T14:45:36.304Z,7.20
2019-01-12T14:48:06.160Z,7.20
2019-01-12T14:50:35.884Z,7.20
2019-01-12T14:53:06.214Z,7.20
2019-01-12T14:55:35.735Z,7.20
2019-01-12T14:58:05.934Z,7.20
2019-01-12T15:00:35.460Z,7.20
2019-01-12T15:03:05.012Z,7.20
2019-01-12T15:05:36.137Z,7.20
2019-01-12T15:08:06.167Z,7.20
2019-01-12T15:10:36.224Z,7.10
2019-01-12T15:13:05.808Z,7.10
2019-01-12T15:15:35.246Z,7.10
2019-01-12T15:18:05.355Z,7.10
2019-01-12T15:20:34.855Z,7.00
2019-01-12T15:23:04.673Z,7.00
2019-01-12T15:25:34.087Z,7.00
2019-01-12T15:28:09.041Z,7.00
2019-01-12T15:30:34.889Z,7.00
2019-01-12T15:33:07.007Z,6.90
2019-01-12T15:35:37.842Z,6.90
2019-01-12T15:38:07.225Z,6.90
2019-01-12T15:40:36.653Z,6.90
2019-01-12T15:43:07.276Z,6.90
2019-01-12T15:45:36.687Z,6.90
2019-01-12T15:48:06.829Z,6.90
2019-01-12T15:50:36.265Z,6.90
2019-01-12T15:53:05.716Z,6.90
2019-01-12T15:55:35.183Z,6.90
2019-01-12T15:58:05.018Z,6.80
2019-01-12T16:00:34.678Z,6.90
2019-01-12T16:03:04.116Z,6.80
2019-01-12T16:05:33.581Z,6.80
2019-01-12T16:08:03.088Z,6.80
2019-01-12T16:10:32.430Z,6.80
2019-01-12T16:13:01.877Z,6.80
2019-01-12T16:15:31.289Z,6.80
2019-01-12T16:18:00.772Z,6.80
2019-01-12T16:20:40.893Z,6.80
2019-01-12T16:23:11.923Z,6.80
2019-01-12T16:25:41.608Z,6.80
2019-01-12T16:28:11.001Z,6.80
2019-01-12T16:30:40.380Z,6.80
2019-01-12T16:33:09.730Z,6.80
2019-01-12T16:35:39.754Z,6.80
2019-01-12T16:38:09.212Z,6.80
2019-01-12T16:40:38.858Z,6.80
2019-01-12T16:43:08.664Z,6.80
2019-01-12T16:45:38.107Z,6.80
2019-01-12T16:48:07.675Z,6.80
2019-01-12T16:50:37.153Z,6.80
2019-01-12T16:53:06.598Z,6.80
2019-01-12T16:55:36.058Z,6.80
2019-01-12T16:58:06.050Z,6.80
2019-01-12T17:00:35.565Z,6.80
2019-01-12T17:03:05.089Z,6.80
2019-01-12T17:05:35.496Z,6.80
2019-01-12T17:08:05.036Z,6.80
2019-01-12T17:10:34.466Z,6.80
2019-01-12T17:13:03.824Z,6.80
2019-01-12T17:15:34.769Z,6.80
2019-01-12T17:18:04.553Z,6.80
2019-01-12T17:20:34.289Z,6.80
2019-01-12T17:23:05.284Z,6.80
2019-01-12T17:25:35.516Z,6.80
2019-01-12T17:28:05.235Z,6.80
2019-01-12T17:30:35.111Z,6.80
2019-01-12T17:33:04.701Z,6.80
2019-01-12T17:35:34.595Z,6.80
2019-01-12T17:38:05.068Z,6.80
2019-01-12T17:40:34.588Z,6.80
2019-01-12T17:43:04.482Z,6.80
2019-01-12T17:45:33.910Z,6.80
2019-01-12T17:48:03.412Z,6.80
2019-01-12T17:50:33.308Z,6.80
2019-01-12T17:53:02.730Z,6.80
2019-01-12T17:55:32.173Z,6.80
2019-01-12T17:58:01.722Z,6.80
2019-01-12T18:00:42.321Z,6.80
2019-01-12T18:03:11.760Z,6.80
2019-01-12T18:05:41.179Z,6.70
2019-01-12T18:08:10.914Z,6.70
2019-01-12T18:10:40.529Z,6.70
2019-01-12T18:13:10.030Z,6.70
2019-01-12T18:15:39.390Z,6.60
2019-01-12T18:18:09.202Z,6.60
2019-01-12T18:20:38.736Z,6.60
2019-01-12T18:23:08.192Z,6.50
2019-01-12T18:25:37.677Z,6.60
2019-01-12T18:28:07.301Z,6.50
2019-01-12T18:30:36.825Z,6.50
2019-01-12T18:33:06.265Z,6.50
2019-01-12T18:35:35.833Z,6.50
2019-01-12T18:38:05.272Z,6.50
2019-01-12T18:40:35.465Z,6.50
2019-01-12T18:43:05.283Z,6.50
2019-01-12T18:45:34.715Z,6.50
2019-01-12T18:48:04.692Z,6.50
2019-01-12T18:50:34.706Z,6.50
2019-01-12T18:53:04.499Z,6.50
2019-01-12T18:55:34.342Z,6.50
2019-01-12T18:58:04.451Z,6.50
2019-01-12T19:00:33.891Z,6.50
2019-01-12T19:03:03.346Z,6.50
2019-01-12T19:05:32.787Z,6.50
2019-01-12T19:08:02.337Z,6.50
2019-01-12T19:10:31.801Z,6.50
2019-01-12T19:13:01.218Z,6.50
2019-01-12T19:15:31.825Z,6.50
2019-01-12T19:18:01.180Z,6.60
2019-01-12T19:20:31.618Z,6.50
2019-01-12T19:23:01.154Z,6.50
2019-01-12T19:25:30.597Z,6.60
2019-01-12T19:28:00.125Z,6.60
2019-01-12T19:30:29.702Z,6.60
2019-01-12T19:32:59.156Z,6.60
2019-01-12T19:35:28.683Z,6.60
2019-01-12T19:37:58.159Z,6.60
2019-01-12T19:40:27.901Z,6.60
2019-01-12T19:42:57.411Z,6.60
2019-01-12T19:45:27.238Z,6.60
2019-01-12T19:47:57.140Z,6.70
2019-01-12T19:50:27.332Z,6.70
2019-01-12T19:52:57.501Z,6.70
2019-01-12T19:55:27.337Z,6.70
2019-01-12T19:57:56.790Z,6.70
2019-01-12T20:00:29.213Z,6.70
2019-01-12T20:02:58.863Z,6.70
2019-01-12T20:05:28.788Z,6.70
2019-01-12T20:07:58.359Z,6.70
2019-01-12T20:10:28.050Z,6.70
2019-01-12T20:12:57.696Z,6.70
2019-01-12T20:15:27.422Z,6.70
2019-01-12T20:17:56.875Z,6.70
2019-01-12T20:20:26.705Z,6.70
2019-01-12T20:23:15.219Z,6.70
2019-01-12T20:25:44.684Z,6.70
2019-01-12T20:28:16.867Z,6.70
2019-01-12T20:31:16.110Z,6.80
2019-01-12T20:33:59.520Z,6.80
2019-01-12T20:37:07.910Z,6.80
2019-01-12T20:40:19.970Z,6.80
2019-01-12T20:43:42.287Z,6.80
2019-01-12T20:47:04.795Z,6.80
2019-01-12T20:49:46.730Z,6.80
2019-01-12T20:53:09.407Z,6.80
2019-01-12T20:56:13.820Z,6.90
2019-01-12T20:59:07.913Z,6.90
2019-01-12T21:02:10.743Z,6.90
2019-01-12T21:05:26.362Z,6.90
2019-01-12T21:08:04.248Z,6.90
2019-01-12T21:11:09.080Z,6.90
2019-01-12T21:14:22.199Z,6.90
2019-01-12T21:17:07.327Z,6.90
2019-01-12T21:19:36.949Z,6.90
2019-01-12T21:22:06.951Z,6.90
2019-01-12T21:24:36.500Z,6.90
2019-01-12T21:27:06.205Z,7.00
2019-01-12T21:29:35.906Z,7.00
2019-01-12T21:32:05.767Z,7.00
2019-01-12T21:34:35.241Z,7.00
2019-01-12T21:37:04.723Z,7.00
2019-01-12T21:39:34.236Z,7.00
2019-01-12T21:42:03.617Z,7.00
2019-01-12T21:44:33.103Z,7.00
2019-01-12T21:47:02.572Z,7.00
2019-01-12T21:49:31.979Z,6.90
2019-01-12T21:52:01.418Z,6.90
2019-01-12T21:54:30.859Z,6.90
2019-01-12T21:57:00.277Z,6.90
2019-01-12T21:59:30.032Z,6.90
2019-01-12T22:01:59.548Z,6.90
2019-01-12T22:04:29.638Z,6.90
2019-01-12T22:06:59.074Z,6.90
2019-01-12T22:09:28.513Z,6.90
2019-01-12T22:11:57.934Z,6.90
2019-01-12T22:14:27.638Z,6.90
2019-01-12T22:16:57.492Z,6.90
2019-01-12T22:19:26.966Z,6.90
2019-01-12T22:21:56.299Z,6.90
2019-01-12T22:24:25.842Z,6.90
2019-01-12T22:26:55.356Z,6.90
2019-01-12T22:29:24.754Z,6.90
2019-01-12T22:31:54.612Z,6.90
2019-01-12T22:34:24.073Z,6.90
2019-01-12T22:36:53.491Z,6.90
2019-01-12T22:39:23.283Z,6.90
2019-01-12T22:41:52.859Z,6.90
2019-01-12T22:44:22.250Z,6.90
2019-01-12T22:46:51.775Z,6.90
2019-01-12T22:49:21.346Z,7.00
2019-01-12T22:51:50.708Z,6.90
2019-01-12T22:54:20.157Z,7.00
2019-01-12T22:56:49.587Z,7.00
2019-01-12T22:59:19.400Z,7.00
2019-01-12T23:02:05.280Z,7.10
2019-01-12T23:04:35.353Z,7.10
2019-01-12T23:07:11.340Z,7.10
2019-01-12T23:09:36.339Z,7.10
2019-01-12T23:12:05.986Z,7.10
2019-01-12T23:14:35.439Z,7.10
2019-01-12T23:17:05.246Z,7.10
2019-01-12T23:19:34.779Z,7.10
2019-01-12T23:22:04.786Z,7.10
2019-01-12T23:24:34.228Z,7.10
2019-01-12T23:27:03.649Z,7.10
2019-01-12T23:29:33.083Z,7.10
2019-01-12T23:32:02.503Z,7.10
2019-01-12T23:34:31.921Z,7.10
2019-01-12T23:37:01.373Z,7.10
2019-01-12T23:39:30.810Z,7.20
2019-01-12T23:42:00.672Z,7.20
2019-01-12T23:44:30.109Z,7.20
2019-01-12T23:46:59.572Z,7.20
2019-01-12T23:49:28.987Z,7.20
2019-01-12T23:51:58.528Z,7.20
2019-01-12T23:54:27.984Z,7.30
2019-01-12T23:56:57.591Z,7.30
2019-01-12T23:59:27.013Z,7.30
